Time;durP1;ratioP1;P1;durP2;ratioP2;P2;SDS_P1;SDS_P2;PMS_P1;PMS_P2;Temp;Humidity;BMP_temperature;BMP_pressure;BME280_temperature;BME280_humidity;BME280_pressure;Samples;Min_cycle;Max_cycle;Signal;HPM_P1;HPM_P2
2022/06/22 00:01:06;;;;;;;;;14.00;13.67;;;;;22.41;54.28;100546.25;5060685;28;46108;-77
2022/06/22 00:03:34;;;;;;;;;12.00;12.00;;;;;22.39;54.08;100551.94;5066370;28;45495;-77
2022/06/22 00:06:01;;;;;;;;;14.67;13.33;;;;;22.39;54.22;100565.47;5065155;28;46378;-76
2022/06/22 00:08:33;;;;;;;;;13.00;13.00;;;;;22.33;54.18;100567.31;5078818;28;45356;-76
2022/06/22 00:11:10;;;;;;;;;12.67;12.33;;;;;22.32;54.36;100564.88;5082038;28;45405;-76
2022/06/22 00:13:35;;;;;;;;;15.00;14.00;;;;;22.13;54.41;100529.25;5082770;28;45216;-77
2022/06/22 00:16:15;;;;;;;;;13.00;13.00;;;;;22.21;54.41;100528.81;5082216;28;45360;-76
2022/06/22 00:18:45;;;;;;;;;15.67;14.00;;;;;22.17;54.26;100520.38;5067824;28;45380;-76
2022/06/22 00:21:13;;;;;;;;;17.00;16.00;;;;;22.11;55.12;100525.97;5063818;28;46031;-76
2022/06/22 00:23:43;;;;;;;;;17.00;17.00;;;;;22.07;54.82;100536.53;5063971;28;45321;-76
2022/06/22 00:26:23;;;;;;;;;17.67;17.00;;;;;22.03;54.73;100538.13;5082023;28;45662;-77
2022/06/22 00:28:51;;;;;;;;;16.00;16.00;;;;;22.00;55.33;100531.31;5081924;28;46297;-77
2022/06/22 00:31:36;;;;;;;;;12.67;11.67;;;;;21.93;55.04;100536.09;5072858;28;45283;-77
2022/06/22 00:34:10;;;;;;;;;17.00;16.67;;;;;21.87;55.26;100535.25;5078541;28;45243;-76
2022/06/22 00:36:38;;;;;;;;;14.00;14.00;;;;;21.83;55.73;100520.63;5082045;28;45462;-76
2022/06/22 00:39:24;;;;;;;;;13.67;13.67;;;;;21.78;56.06;100518.66;5063485;28;48184;-76
2022/06/22 00:41:58;;;;;;;;;18.00;16.00;;;;;21.73;56.05;100515.88;5081932;28;45327;-76
2022/06/22 00:44:27;;;;;;;;;15.33;15.33;;;;;21.70;56.29;100524.53;5081768;28;45337;-76
2022/06/22 00:47:02;;;;;;;;;13.67;13.67;;;;;21.72;56.32;100530.47;5082085;28;45331;-76
2022/06/22 00:49:29;;;;;;;;;14.00;14.00;;;;;21.60;56.62;100518.97;5081549;28;46556;-77
2022/06/22 00:51:59;;;;;;;;;17.00;16.67;;;;;21.64;56.03;100530.94;5082018;28;45358;-75
2022/06/22 00:54:27;;;;;;;;;20.33;19.67;;;;;21.54;56.18;100527.03;5063519;28;45610;-75
2022/06/22 00:57:02;;;;;;;;;19.33;18.67;;;;;21.56;56.35;100548.41;5081805;28;45717;-76
2022/06/22 00:59:51;;;;;;;;;20.00;20.00;;;;;21.51;56.91;100557.28;5081280;28;45282;-77
2022/06/22 01:02:43;;;;;;;;;18.67;17.00;;;;;21.49;56.74;100562.13;5063374;28;46147;-77
2022/06/22 01:05:21;;;;;;;;;16.00;16.00;;;;;21.48;56.74;100551.56;5077928;27;45434;-75
2022/06/22 01:07:52;;;;;;;;;16.67;16.67;;;;;21.49;57.05;100554.00;5081590;28;45501;-77
2022/06/22 01:10:25;;;;;;;;;15.33;15.33;;;;;21.50;56.65;100555.66;5063343;28;47137;-76
2022/06/22 01:13:03;;;;;;;;;14.67;14.67;;;;;21.41;56.75;100535.53;5081534;28;45291;-75
2022/06/22 01:15:47;;;;;;;;;16.33;16.00;;;;;21.49;57.12;100564.81;5050853;28;45386;-76
2022/06/22 01:18:14;;;;;;;;;17.33;17.33;;;;;21.43;57.01;100565.84;5065652;28;45977;-77
2022/06/22 01:20:58;;;;;;;;;18.00;18.00;;;;;21.49;57.27;100564.03;5080078;28;45375;-76
2022/06/22 01:23:48;;;;;;;;;17.00;17.00;;;;;21.49;57.28;100564.03;5063017;28;45374;-76
2022/06/22 01:26:51;;;;;;;;;15.00;15.00;;;;;21.50;57.46;100557.53;5067638;28;45420;-76
2022/06/22 01:29:23;;;;;;;;;19.33;16.67;;;;;21.44;57.70;100543.16;5070296;28;45405;-77
2022/06/22 01:32:17;;;;;;;;;21.00;17.67;;;;;21.46;57.60;100541.00;5062844;28;47475;-76
2022/06/22 01:34:47;;;;;;;;;23.00;20.33;;;;;21.44;57.33;100540.44;5061462;28;45344;-75
2022/06/22 01:37:16;;;;;;;;;16.67;15.67;;;;;21.41;57.92;100539.06;5081109;28;45256;-76
2022/06/22 01:39:42;;;;;;;;;18.33;17.33;;;;;21.41;58.18;100546.34;5081155;28;45230;-75
2022/06/22 01:42:19;;;;;;;;;15.00;14.00;;;;;21.39;57.63;100557.41;5080828;28;46207;-76
2022/06/22 01:44:52;;;;;;;;;17.67;16.67;;;;;21.35;57.94;100548.19;5049173;28;45292;-76
2022/06/22 01:47:40;;;;;;;;;17.67;17.67;;;;;21.33;57.78;100546.81;5081225;28;45325;-76
2022/06/22 01:50:32;;;;;;;;;15.33;15.00;;;;;21.30;58.02;100561.63;5069197;28;45517;-76
2022/06/22 01:53:04;;;;;;;;;18.33;17.33;;;;;21.26;58.17;100561.31;5062370;28;46862;-76
2022/06/22 01:55:54;;;;;;;;;19.67;19.33;;;;;21.25;58.10;100562.38;5080870;28;45304;-76
2022/06/22 01:58:19;;;;;;;;;18.67;18.67;;;;;21.24;58.35;100571.56;5042549;28;45291;-76
2022/06/22 02:00:51;;;;;;;;;18.00;18.00;;;;;21.21;58.49;100569.34;5073073;28;45224;-77
2022/06/22 02:03:22;;;;;;;;;17.67;16.33;;;;;21.18;58.39;100569.84;5062260;28;48375;-76
2022/06/22 02:06:01;;;;;;;;;17.67;15.67;;;;;21.09;59.08;100564.06;5085194;27;45396;-76
2022/06/22 02:08:36;;;;;;;;;15.33;15.33;;;;;21.04;58.99;100562.09;5080703;28;45249;-76
2022/06/22 02:11:18;;;;;;;;;17.33;17.33;;;;;21.05;58.75;100560.22;5080506;28;45993;-76
2022/06/22 02:13:54;;;;;;;;;19.33;19.33;;;;;21.02;59.22;100560.72;5067712;28;46782;-75
2022/06/22 02:16:29;;;;;;;;;18.00;18.00;;;;;21.05;59.13;100563.75;5062069;28;45367;-76
2022/06/22 02:18:57;;;;;;;;;14.33;14.33;;;;;21.02;59.17;100558.84;5080604;28;45359;-76
2022/06/22 02:21:26;;;;;;;;;20.00;19.00;;;;;21.00;59.40;100562.84;5079994;28;45514;-76
2022/06/22 02:24:02;;;;;;;;;17.33;17.33;;;;;21.01;59.32;100564.50;5080447;28;46460;-77
2022/06/22 02:26:35;;;;;;;;;16.33;16.00;;;;;21.02;59.16;100563.44;5080190;28;45436;-76
2022/06/22 02:29:01;;;;;;;;;16.00;16.00;;;;;21.01;59.80;100567.22;5075074;28;45388;-76
2022/06/22 02:31:27;;;;;;;;;17.67;17.67;;;;;20.99;59.67;100575.56;5080152;28;45480;-76
2022/06/22 02:33:55;;;;;;;;;18.00;17.33;;;;;20.97;60.04;100563.34;5079847;28;46453;-76
2022/06/22 02:36:24;;;;;;;;;19.00;19.00;;;;;20.92;59.85;100550.59;5079989;28;45234;-76
2022/06/22 02:38:52;;;;;;;;;19.00;19.00;;;;;20.95;60.22;100547.38;5080346;28;45448;-76
2022/06/22 02:46:49;;;;;;;;;22.00;22.00;;;;;20.90;59.92;100531.94;5079891;28;45343;-77
2022/06/22 02:49:25;;;;;;;;;20.67;18.33;;;;;20.95;60.00;100531.19;5079757;28;45347;-77
2022/06/22 02:51:51;;;;;;;;;21.33;20.00;;;;;21.02;59.96;100534.53;5061617;28;46426;-76
2022/06/22 02:54:25;;;;;;;;;23.00;22.00;;;;;21.04;59.78;100518.88;5079818;28;45557;-77
2022/06/22 02:57:01;;;;;;;;;20.00;19.67;;;;;21.00;60.03;100512.34;5079828;28;45300;-76
2022/06/22 02:59:27;;;;;;;;;18.00;18.00;;;;;20.95;60.20;100520.38;5079865;28;45240;-77
2022/06/22 03:01:52;;;;;;;;;17.67;17.67;;;;;20.91;60.43;100513.84;5070672;28;47054;-76
2022/06/22 03:04:18;;;;;;;;;20.67;19.00;;;;;20.98;60.20;100517.19;5076114;27;47279;-77
2022/06/22 03:06:49;;;;;;;;;17.00;17.00;;;;;20.95;59.77;100514.97;5080146;27;45266;-76
2022/06/22 03:09:15;;;;;;;;;20.67;20.67;;;;;20.87;60.02;100507.28;5061631;28;45389;-77
2022/06/22 03:11:48;;;;;;;;;20.00;20.00;;;;;20.90;60.26;100514.91;5079407;28;45248;-76
2022/06/22 03:14:25;;;;;;;;;20.67;19.33;;;;;20.88;60.13;100511.59;5061224;28;47329;-77
2022/06/22 03:16:57;;;;;;;;;19.33;19.00;;;;;20.85;60.02;100498.59;5061142;28;45970;-76
2022/06/22 03:19:28;;;;;;;;;20.00;19.00;;;;;20.78;59.99;100475.31;5079481;28;45436;-77
2022/06/22 03:21:55;;;;;;;;;19.00;19.00;;;;;20.75;60.16;100473.13;5079302;28;45597;-77
2022/06/22 03:24:39;;;;;;;;;20.67;19.33;;;;;20.75;59.90;100477.69;5079446;28;45285;-77
2022/06/22 03:27:14;;;;;;;;;23.33;22.00;;;;;20.66;60.26;100486.22;5079243;28;45325;-76
2022/06/22 03:29:50;;;;;;;;;19.67;18.67;;;;;20.67;60.39;100501.34;5057951;28;45308;-76
2022/06/22 03:32:34;;;;;;;;;17.67;17.67;;;;;20.68;60.15;100507.53;5075075;28;45248;-76
2022/06/22 03:35:10;;;;;;;;;19.00;19.00;;;;;20.70;60.20;100505.44;5061140;28;46192;-76
2022/06/22 03:37:56;;;;;;;;;20.67;18.33;;;;;20.62;60.62;100493.16;5060990;28;45559;-77
2022/06/22 03:40:28;;;;;;;;;17.00;17.00;;;;;20.69;60.87;100499.19;5079248;28;45299;-76
2022/06/22 03:42:58;;;;;;;;;21.00;21.00;;;;;20.56;60.37;100484.19;5079101;28;45155;-76
2022/06/22 03:45:40;;;;;;;;;22.33;21.67;;;;;20.55;60.03;100479.03;5063067;28;46720;-77
2022/06/22 03:48:27;;;;;;;;;24.00;24.00;;;;;20.62;60.00;100492.38;5082932;28;45350;-77
2022/06/22 03:50:58;;;;;;;;;23.67;22.33;;;;;20.59;60.12;100500.97;5064406;28;45453;-76
2022/06/22 03:53:41;;;;;;;;;24.00;24.00;;;;;20.53;60.02;100483.88;5082685;28;45383;-77
2022/06/22 03:56:14;;;;;;;;;23.00;22.67;;;;;20.55;60.20;100487.13;5082442;28;45340;-77
2022/06/22 03:58:43;;;;;;;;;22.00;22.00;;;;;20.51;60.84;100476.03;5082718;28;45394;-77
2022/06/22 04:01:10;;;;;;;;;20.67;20.67;;;;;20.48;60.31;100481.09;5082632;28;45331;-77
2022/06/22 04:03:36;;;;;;;;;23.67;23.33;;;;;20.49;60.11;100485.41;5064348;28;46367;-76
2022/06/22 04:06:03;;;;;;;;;22.67;22.67;;;;;20.48;60.52;100483.78;5087119;27;46375;-76
2022/06/22 04:08:35;;;;;;;;;24.00;24.00;;;;;20.51;60.56;100497.63;5082590;28;45417;-76
2022/06/22 04:11:12;;;;;;;;;24.00;24.00;;;;;20.52;60.31;100518.13;5068099;28;45392;-76
2022/06/22 04:13:49;;;;;;;;;18.33;18.00;;;;;20.53;60.30;100544.06;5050398;28;45674;-77
2022/06/22 04:16:18;;;;;;;;;18.67;17.33;;;;;20.40;60.83;100515.53;5082359;28;46271;-76
2022/06/22 04:18:53;;;;;;;;;23.00;23.00;;;;;20.50;60.50;100514.06;5068735;28;45238;-77
2022/06/22 04:21:33;;;;;;;;;20.67;20.67;;;;;20.60;60.94;100516.09;5082345;28;45371;-77
2022/06/22 04:24:06;;;;;;;;;40.67;33.67;;;;;20.60;60.81;100519.59;5069719;28;45361;-77
2022/06/22 04:26:58;;;;;;;;;22.67;20.67;;;;;20.50;60.95;100516.75;5063724;28;48177;-77
2022/06/22 04:29:35;;;;;;;;;23.33;22.33;;;;;20.61;61.04;100504.22;5060609;28;45341;-78
2022/06/22 04:32:16;;;;;;;;;22.67;21.67;;;;;20.63;61.20;100516.41;5076081;28;45296;-77
2022/06/22 04:34:52;;;;;;;;;20.00;20.00;;;;;20.62;61.78;100506.66;5069809;28;45285;-77
2022/06/22 04:37:28;;;;;;;;;20.67;20.67;;;;;20.69;61.12;100495.72;5082013;28;45388;-77
2022/06/22 04:40:05;;;;;;;;;34.00;30.33;;;;;20.67;61.14;100492.44;5081810;28;45291;-77
2022/06/22 04:42:30;;;;;;;;;70.25;62.00;;;;;20.67;61.23;100504.06;5081914;28;45457;-77
2022/06/22 04:44:55;;;;;;;;;43.75;38.75;;;;;20.66;60.90;100513.22;5063765;28;46013;-77
2022/06/22 04:47:30;;;;;;;;;31.33;26.00;;;;;20.70;61.11;100513.53;5063507;28;47398;-77
2022/06/22 04:50:03;;;;;;;;;34.00;30.67;;;;;20.64;60.96;100511.81;5081871;28;45406;-77
2022/06/22 04:52:42;;;;;;;;;41.00;34.67;;;;;20.64;60.98;100514.50;5064473;28;45196;-77
2022/06/22 04:55:14;;;;;;;;;53.50;43.75;;;;;20.63;61.19;100516.41;5080614;28;45245;-76
2022/06/22 04:57:44;;;;;;;;;48.25;38.75;;;;;20.55;61.39;100503.31;5078765;28;46333;-76
2022/06/22 05:00:24;;;;;;;;;36.00;31.67;;;;;20.61;61.58;100509.59;5080648;28;45370;-78
2022/06/22 05:02:56;;;;;;;;;82.25;70.25;;;;;20.65;61.94;100508.06;5081132;28;45303;-77
2022/06/22 05:05:25;;;;;;;;;26.33;26.33;;;;;20.62;61.27;100506.66;5081873;27;45568;-78
2022/06/22 05:07:54;;;;;;;;;22.00;22.00;;;;;20.60;61.48;100514.22;5063127;28;45389;-77
2022/06/22 05:10:35;;;;;;;;;32.67;28.33;;;;;20.55;61.71;100496.06;5081499;28;45361;-78
2022/06/22 05:13:12;;;;;;;;;23.67;21.67;;;;;20.63;61.81;100499.38;5081638;28;45423;-77
2022/06/22 05:15:39;;;;;;;;;25.00;25.00;;;;;20.67;61.73;100489.72;5081413;28;45395;-78
2022/06/22 05:18:12;;;;;;;;;21.67;20.67;;;;;20.66;62.08;100488.09;5081149;28;46306;-77
2022/06/22 05:21:00;;;;;;;;;25.00;24.00;;;;;20.65;62.28;100478.38;5081133;28;45507;-78
2022/06/22 05:23:27;;;;;;;;;20.00;20.00;;;;;20.60;62.03;100465.63;5068877;28;45486;-78
2022/06/22 05:25:55;;;;;;;;;21.00;20.33;;;;;20.61;62.47;100467.25;5062957;28;45945;-78
2022/06/22 05:28:35;;;;;;;;;25.00;24.33;;;;;20.68;62.31;100477.84;5048022;28;47471;-78
2022/06/22 05:31:24;;;;;;;;;22.67;21.33;;;;;20.71;62.01;100479.25;5061733;28;45325;-78
2022/06/22 05:33:57;;;;;;;;;20.67;18.67;;;;;20.70;62.05;100473.03;5080797;28;45354;-79
2022/06/22 05:36:26;;;;;;;;;21.00;19.33;;;;;20.74;61.82;100479.56;5081147;28;45338;-78
2022/06/22 05:38:55;;;;;;;;;24.67;24.67;;;;;20.67;61.50;100466.25;5073530;28;47215;-78
2022/06/22 05:41:29;;;;;;;;;24.00;24.00;;;;;20.72;61.71;100475.47;5055184;28;45483;-77
2022/06/22 05:43:57;;;;;;;;;25.00;25.00;;;;;20.71;62.20;100474.66;5080968;28;45330;-78
2022/06/22 05:46:23;;;;;;;;;20.33;20.33;;;;;20.77;61.97;100475.56;5062603;28;45616;-78
2022/06/22 05:48:50;;;;;;;;;28.00;27.00;;;;;20.83;61.76;100460.25;5080740;28;45339;-78
2022/06/22 05:51:25;;;;;;;;;37.33;32.67;;;;;20.78;61.68;100459.13;5080877;28;45389;-78
2022/06/22 05:54:19;;;;;;;;;19.67;19.67;;;;;20.88;61.45;100481.91;5062832;28;45262;-78
2022/06/22 05:56:52;;;;;;;;;23.67;23.67;;;;;20.87;62.07;100480.28;5063205;28;47319;-77
2022/06/22 05:59:32;;;;;;;;;27.67;25.00;;;;;20.80;61.65;100480.47;5066897;28;46183;-78
2022/06/22 06:02:34;;;;;;;;;24.00;23.33;;;;;20.82;61.79;100491.81;5079522;28;45378;-79
2022/06/22 06:05:13;;;;;;;;;23.00;23.00;;;;;20.74;61.57;100489.56;5080227;27;45269;-78
2022/06/22 06:07:46;;;;;;;;;23.33;22.33;;;;;20.75;61.42;100500.13;5077234;28;45358;-78
2022/06/22 06:10:22;;;;;;;;;24.00;24.00;;;;;20.71;61.66;100496.25;5061460;28;47110;-78
2022/06/22 06:13:15;;;;;;;;;27.00;26.67;;;;;20.76;61.45;100499.03;5076587;28;45437;-78
2022/06/22 06:15:44;;;;;;;;;23.00;23.00;;;;;20.73;61.78;100496.84;5079987;28;45485;-78
2022/06/22 06:18:16;;;;;;;;;27.67;27.00;;;;;20.76;61.90;100490.94;5079749;28;45566;-78
2022/06/22 06:20:48;;;;;;;;;19.67;19.67;;;;;20.71;62.30;100477.34;5061148;28;48207;-77
2022/06/22 06:23:31;;;;;;;;;20.00;19.00;;;;;20.77;62.09;100473.66;5069100;28;45233;-78
2022/06/22 06:28:52;;;;;;;;;22.67;22.33;;;;;20.89;62.26;100491.66;5080126;28;45255;-78
2022/06/22 06:31:37;;;;;;;;;23.67;21.67;;;;;20.94;61.92;100492.56;5080218;28;46281;-78
2022/06/22 06:34:13;;;;;;;;;22.67;19.00;;;;;20.98;61.96;100475.84;5079886;28;45344;-78
2022/06/22 06:36:49;;;;;;;;;23.67;23.67;;;;;21.01;61.90;100467.25;5079328;28;45245;-78
2022/06/22 06:39:22;;;;;;;;;22.00;22.00;;;;;21.01;61.68;100475.34;5079991;28;45470;-79
2022/06/22 06:42:05;;;;;;;;;27.00;24.33;;;;;21.03;61.79;100468.63;5066357;28;47199;-78
2022/06/22 06:44:35;;;;;;;;;27.67;26.00;;;;;21.04;61.89;100456.75;5079446;28;45385;-79
2022/06/22 06:47:05;;;;;;;;;22.00;22.00;;;;;21.14;61.83;100464.19;5080131;28;45305;-78
2022/06/22 06:49:38;;;;;;;;;23.00;22.33;;;;;21.17;61.76;100476.34;5079790;28;45461;-76
2022/06/22 06:52:28;;;;;;;;;23.67;23.67;;;;;21.17;61.38;100477.19;5079680;28;46830;-76
2022/06/22 06:55:01;;;;;;;;;20.67;20.67;;;;;21.18;61.58;100486.91;5061714;28;45280;-75
2022/06/22 06:57:29;;;;;;;;;23.00;23.00;;;;;21.18;60.94;100496.91;5079700;28;45428;-75
2022/06/22 07:00:01;;;;;;;;;21.67;21.67;;;;;21.17;61.18;100493.41;5079819;28;45222;-77
2022/06/22 07:02:34;;;;;;;;;33.67;30.33;;;;;21.18;61.17;100494.19;5061440;28;48305;-77
2022/06/22 07:05:03;;;;;;;;;30.33;27.33;;;;;21.22;61.46;100499.91;5089772;27;45320;-76
2022/06/22 07:07:45;;;;;;;;;26.00;26.00;;;;;21.11;61.72;100480.88;5081761;27;45257;-79
2022/06/22 07:10:24;;;;;;;;;25.00;24.00;;;;;21.23;61.50;100485.34;5078768;28;45493;-78
2022/06/22 07:13:01;;;;;;;;;25.67;25.67;;;;;21.27;61.27;100492.69;5077374;28;45393;-79
2022/06/22 07:15:34;;;;;;;;;27.67;27.67;;;;;21.30;61.14;100486.78;5062790;28;45358;-78
2022/06/22 07:18:11;;;;;;;;;25.00;23.00;;;;;21.44;61.22;100492.63;5079463;28;45331;-77
2022/06/22 07:20:43;;;;;;;;;23.33;23.33;;;;;21.54;61.17;100497.31;5082379;28;45498;-78
2022/06/22 07:23:44;;;;;;;;;25.33;22.33;;;;;21.56;60.53;100478.13;5066568;28;48280;-78
2022/06/22 07:26:32;;;;;;;;;29.33;28.33;;;;;21.67;60.54;100487.97;5036299;28;46853;-79
2022/06/22 07:29:10;;;;;;;;;25.67;24.00;;;;;21.70;61.24;100486.66;5057238;28;45270;-78
2022/06/22 07:31:45;;;;;;;;;23.33;22.67;;;;;21.78;60.25;100480.81;5081246;28;45267;-78
2022/06/22 07:34:22;;;;;;;;;19.00;19.00;;;;;21.88;60.37;100492.81;5061412;28;47484;-78
2022/06/22 07:36:54;;;;;;;;;24.33;23.33;;;;;21.90;60.05;100482.53;5083045;28;45331;-79
2022/06/22 07:39:55;;;;;;;;;21.00;21.00;;;;;22.01;59.77;100486.97;5079723;28;45316;-79
2022/06/22 07:42:21;;;;;;;;;21.33;20.00;;;;;22.03;59.88;100468.56;5018353;28;45493;-77
2022/06/22 07:44:47;;;;;;;;;23.33;22.33;;;;;22.23;60.16;100483.34;5082798;28;45302;-76
2022/06/22 07:47:24;;;;;;;;;25.33;24.33;;;;;22.25;59.43;100478.50;5063362;28;45430;-78
2022/06/22 07:50:04;;;;;;;;;20.00;18.67;;;;;22.28;59.86;100480.69;5065938;28;45335;-79
2022/06/22 07:52:41;;;;;;;;;25.33;24.00;;;;;22.37;59.37;100485.59;5060797;28;48196;-78
2022/06/22 07:55:22;;;;;;;;;24.33;23.00;;;;;22.39;59.86;100489.66;5080161;28;45319;-78
2022/06/22 07:57:56;;;;;;;;;24.33;22.67;;;;;22.49;59.39;100499.75;5079493;28;45323;-76
2022/06/22 08:00:25;;;;;;;;;22.00;22.00;;;;;22.53;59.49;100500.88;5089268;28;44740;-79
2022/06/22 08:03:05;;;;;;;;;24.33;24.33;;;;;22.70;59.38;100497.22;5085439;28;45486;-80
2022/06/22 08:05:36;;;;;;;;;19.00;19.00;;;;;22.80;59.47;100496.44;5089897;27;46186;-79
2022/06/22 08:08:03;;;;;;;;;23.00;23.00;;;;;22.91;59.37;100498.13;5087593;28;45367;-79
2022/06/22 08:10:45;;;;;;;;;23.00;23.00;;;;;23.00;58.80;100494.91;5082421;28;45505;-79
2022/06/22 08:13:16;;;;;;;;;21.33;21.00;;;;;23.11;58.95;100522.88;5084630;28;45533;-79
2022/06/22 08:15:48;;;;;;;;;24.00;23.33;;;;;23.10;58.29;100505.78;5089880;28;46200;-79
2022/06/22 08:18:14;;;;;;;;;20.00;19.67;;;;;23.29;58.44;100527.81;5081761;28;45409;-79
2022/06/22 08:20:43;;;;;;;;;24.00;22.67;;;;;23.38;58.39;100511.91;5081323;28;45364;-79
2022/06/22 08:23:18;;;;;;;;;24.67;24.00;;;;;23.62;57.76;100516.03;5060636;28;45924;-78
2022/06/22 08:25:45;;;;;;;;;30.00;29.33;;;;;23.73;57.81;100514.16;5061027;28;48232;-79
2022/06/22 08:28:15;;;;;;;;;21.00;21.00;;;;;23.86;57.52;100526.38;5079851;28;45401;-79
2022/06/22 08:30:41;;;;;;;;;20.33;19.33;;;;;23.93;58.17;100518.78;5062646;28;45264;-79
2022/06/22 08:33:12;;;;;;;;;22.67;22.67;;;;;24.01;57.54;100520.97;5084114;28;45547;-79
2022/06/22 08:35:49;;;;;;;;;21.33;20.00;;;;;24.13;57.68;100518.03;5066337;28;47668;-79
2022/06/22 08:38:43;;;;;;;;;19.00;19.00;;;;;24.32;56.93;100531.03;5063849;28;45266;-79
2022/06/22 08:41:45;;;;;;;;;22.33;21.00;;;;;24.44;56.75;100525.31;5081987;28;45475;-79
2022/06/22 08:44:19;;;;;;;;;26.67;24.00;;;;;24.45;56.48;100526.94;5082993;28;45767;-78
2022/06/22 08:46:57;;;;;;;;;22.00;21.67;;;;;24.46;56.42;100532.09;5066118;28;47458;-79
2022/06/22 08:49:40;;;;;;;;;23.67;23.67;;;;;24.40;56.25;100511.50;5068633;28;45247;-78
2022/06/22 08:52:29;;;;;;;;;23.33;23.33;;;;;24.41;55.61;100529.41;5091939;28;45306;-78
2022/06/22 08:55:12;;;;;;;;;22.67;21.00;;;;;24.31;55.89;100532.13;5074022;28;45455;-78
2022/06/22 08:57:40;;;;;;;;;20.67;20.67;;;;;24.31;56.08;100526.69;5090275;28;45397;-78
2022/06/22 09:00:21;;;;;;;;;16.00;16.00;;;;;24.20;56.13;100526.69;5085176;28;45151;-78
2022/06/22 09:03:21;;;;;;;;;26.67;25.67;;;;;24.26;56.15;100526.69;5081941;28;45392;-79
2022/06/22 09:06:08;;;;;;;;;21.67;20.67;;;;;24.31;56.10;100541.09;5095149;27;45386;-78
2022/06/22 09:08:59;;;;;;;;;41.00;31.67;;;;;24.28;56.21;100540.81;5081337;28;47038;-79
2022/06/22 09:11:37;;;;;;;;;21.67;21.67;;;;;24.22;56.10;100542.72;5093782;28;45692;-78
2022/06/22 09:14:11;;;;;;;;;20.00;19.00;;;;;24.22;56.06;100542.72;5073963;28;44668;-78
2022/06/22 09:17:06;;;;;;;;;20.33;19.33;;;;;24.13;56.27;100526.16;5071702;28;46224;-79
2022/06/22 09:20:00;;;;;;;;;21.33;20.33;;;;;24.27;55.96;100539.19;5092955;28;46306;-78
2022/06/22 09:22:58;;;;;;;;;21.00;18.00;;;;;24.25;56.35;100549.50;5080949;28;45387;-79
2022/06/22 09:25:45;;;;;;;;;22.33;21.67;;;;;24.16;56.08;100550.06;5079650;28;45399;-79
2022/06/22 09:28:44;;;;;;;;;20.00;19.00;;;;;24.16;56.64;100549.22;5094542;28;45260;-78
2022/06/22 09:31:46;;;;;;;;;18.33;18.00;;;;;24.18;56.73;100553.28;5066376;28;47763;-83
2022/06/22 09:34:21;;;;;;;;;28.00;26.67;;;;;24.21;57.05;100541.06;5081531;28;45431;-79
2022/06/22 09:37:04;;;;;;;;;29.00;28.00;;;;;24.32;56.46;100553.59;5083858;28;45303;-78
2022/06/22 09:40:03;;;;;;;;;24.00;23.67;;;;;24.36;56.18;100540.25;5082989;28;45332;-77
2022/06/22 09:42:49;;;;;;;;;18.67;17.67;;;;;24.49;56.35;100554.38;5072468;28;45386;-78
2022/06/22 09:45:43;;;;;;;;;24.00;24.00;;;;;24.51;56.39;100547.56;5066580;28;45477;-78
2022/06/22 09:48:17;;;;;;;;;24.33;23.33;;;;;24.62;55.80;100542.97;5082267;28;45295;-77
2022/06/22 09:50:51;;;;;;;;;22.00;20.67;;;;;24.73;56.36;100540.22;5072586;28;45265;-77
2022/06/22 09:53:54;;;;;;;;;24.00;23.67;;;;;25.00;55.85;100545.34;5083894;28;46299;-78
2022/06/22 09:56:38;;;;;;;;;18.00;17.00;;;;;25.27;56.20;100543.34;5068062;28;45303;-77
2022/06/22 09:59:36;;;;;;;;;25.00;23.00;;;;;25.44;55.11;100543.78;5073362;28;45245;-76
2022/06/22 10:02:01;;;;;;;;;47.00;39.67;;;;;25.57;54.84;100550.53;5056754;28;46208;-78
2022/06/22 10:04:38;;;;;;;;;29.67;28.33;;;;;25.60;54.19;100551.91;5091760;27;45326;-78
2022/06/22 10:07:17;;;;;;;;;27.33;26.33;;;;;25.71;54.82;100552.66;5091572;27;46080;-81
2022/06/22 10:10:02;;;;;;;;;22.00;20.33;;;;;25.82;54.58;100540.63;5082011;28;45306;-78
2022/06/22 10:13:05;;;;;;;;;20.00;20.00;;;;;26.08;54.91;100540.44;5081116;28;45276;-78
2022/06/22 10:15:49;;;;;;;;;19.33;19.33;;;;;26.21;54.31;100540.84;5064965;28;47594;-81
2022/06/22 10:18:32;;;;;;;;;58.25;46.25;;;;;26.27;54.20;100553.34;5081476;28;45510;-79
2022/06/22 10:21:13;;;;;;;;;54.50;42.50;;;;;26.28;53.60;100548.72;5080401;28;45363;-78
2022/06/22 10:23:58;;;;;;;;;52.75;42.50;;;;;26.35;53.55;100541.06;5062446;28;46558;-79
2022/06/22 10:26:36;;;;;;;;;61.50;48.75;;;;;26.32;53.90;100541.63;5067262;28;46156;-79
2022/06/22 10:29:33;;;;;;;;;24.67;23.67;;;;;26.22;53.14;100537.06;5080958;28;45212;-78
2022/06/22 10:32:38;;;;;;;;;22.67;22.33;;;;;26.23;54.04;100544.13;5062517;28;45450;-79
2022/06/22 10:35:22;;;;;;;;;23.00;21.67;;;;;26.29;54.40;100542.16;5082793;28;45466;-77
2022/06/22 10:37:57;;;;;;;;;21.33;20.33;;;;;26.27;53.63;100542.44;5080135;28;45236;-78
2022/06/22 10:46:06;;;;;;;;;25.67;24.67;;;;;26.08;53.89;100537.72;5081216;28;45465;-79
2022/06/22 10:48:44;;;;;;;;;41.00;35.00;;;;;26.04;54.55;100539.34;5084270;28;45477;-78
2022/06/22 10:51:54;;;;;;;;;29.50;28.50;;;;;25.95;54.31;100525.53;5081667;28;45332;-76
2022/06/22 10:54:51;;;;;;;;;26.67;26.33;;;;;25.97;54.86;100528.81;5081610;28;45541;-77
2022/06/22 10:57:22;;;;;;;;;25.00;25.00;;;;;25.93;55.08;100538.63;5083607;28;45317;-78
2022/06/22 10:59:56;;;;;;;;;23.00;23.00;;;;;25.88;54.71;100516.09;5081042;28;45274;-77
2022/06/22 11:02:49;;;;;;;;;28.67;26.67;;;;;25.90;55.40;100520.16;5080012;28;45477;-77
2022/06/22 11:05:33;;;;;;;;;16.67;16.67;;;;;25.90;55.08;100508.44;5095528;27;45352;-79
2022/06/22 11:08:10;;;;;;;;;39.67;34.33;;;;;25.86;55.28;100508.22;5069083;28;45314;-78
2022/06/22 11:11:13;;;;;;;;;28.67;28.33;;;;;25.86;55.85;100501.94;5062037;28;47117;-78
2022/06/22 11:13:44;;;;;;;;;26.67;24.67;;;;;25.90;55.96;100505.72;5080488;28;45303;-81
2022/06/22 11:16:39;;;;;;;;;29.67;26.67;;;;;25.91;56.11;100513.59;5081789;28;45432;-76
2022/06/22 11:19:29;;;;;;;;;22.67;20.00;;;;;25.90;55.86;100511.16;5084392;28;45233;-75
2022/06/22 11:22:12;;;;;;;;;50.75;42.75;;;;;25.90;56.25;100503.81;5070137;28;48130;-76
2022/06/22 11:24:49;;;;;;;;;80.50;75.00;;;;;25.96;56.12;100518.19;5063113;28;45346;-77
2022/06/22 11:30:56;;;;;;;;;54.25;43.50;;;;;26.02;56.69;100517.06;5076529;28;45390;-77
2022/06/22 11:33:36;;;;;;;;;43.33;34.67;;;;;26.10;56.55;100510.19;5087311;28;46106;-78
2022/06/22 11:36:11;;;;;;;;;30.00;27.67;;;;;26.19;56.42;100524.00;5066209;28;45909;-78
2022/06/22 11:39:04;;;;;;;;;34.33;31.67;;;;;26.22;56.57;100515.28;5070434;28;45501;-78
2022/06/22 11:41:53;;;;;;;;;61.50;48.25;;;;;26.28;56.28;100522.28;5073051;28;45577;-79
2022/06/22 11:48:08;;;;;;;;;55.50;45.50;;;;;26.15;56.81;100522.94;5079432;28;45394;-78
2022/06/22 11:51:11;;;;;;;;;31.33;28.67;;;;;26.11;57.03;100528.16;5082873;28;45355;-79
2022/06/22 11:53:58;;;;;;;;;44.00;37.00;;;;;26.07;56.48;100532.56;5092659;28;45539;-78
2022/06/22 11:56:42;;;;;;;;;70.00;62.75;;;;;25.98;56.92;100529.63;5091864;28;48364;-79
2022/06/22 11:59:38;;;;;;;;;47.33;39.67;;;;;25.92;57.86;100530.75;5081354;28;45398;-79
2022/06/22 12:02:22;;;;;;;;;47.25;38.75;;;;;25.89;57.63;100523.16;5084778;28;45415;-79
2022/06/22 12:05:08;;;;;;;;;34.67;31.67;;;;;25.90;57.36;100538.38;5095123;27;45322;-79
2022/06/22 12:07:52;;;;;;;;;51.50;42.25;;;;;25.90;57.25;100539.22;5089718;28;47216;-78
2022/06/22 12:10:48;;;;;;;;;56.25;44.25;;;;;25.88;57.61;100541.38;5095232;28;45366;-79
2022/06/22 12:13:32;;;;;;;;;31.00;28.67;;;;;25.87;57.69;100536.22;5098479;28;44737;-78
2022/06/22 12:16:06;;;;;;;;;38.00;31.67;;;;;25.83;58.00;100547.66;5075176;28;46926;-79
2022/06/22 12:18:54;;;;;;;;;35.00;31.00;;;;;25.88;57.92;100535.16;5091928;28;46236;-78